Terminal Aerodrome Forecast
Issued by NWS

Home | Current Version | Previous Version | Text Only | Print | Product List | Glossary On
Versions: 1 2 3 4 5 6 7 8 9 10 11 12 13 14
000
FTUS45 KTFX 211700
TAFHVR
TAF
KHVR 211731Z 2118/2218 25011KT P6SM BKN090 WS020/27030KT
     FM212200 27014G21KT P6SM VCSH SCT020 OVC040
      TEMPO 2123/2203 3SM -SHSN BLSN BKN015
     FM220700 26015KT P6SM BKN060
     FM221500 26014G21KT P6SM BKN090=

USA.gov is the U.S. government's official web portal to all federal, state and local government web resources and services.